Terminal Aerodrome Forecast
Issued by NWS King Salmon, AK

Home | Current Version | Previous Version | Text Only | Print | Product List | Glossary On
Versions: 1 2 3 4 5 6 7 8 9 10 11 12 13 14 15 16 17 18 19 20 21 22 23 24 25 26 27 28 29 30 31 32
581
FTAK31 PANC 221737
TAFAKN
TAF
PAKN 221737Z 2218/2318 33005KT P6SM SKC
     FM230000 02009KT P6SM FEW200
     FM230800 03009KT P6SM SCT050 BKN120
     FM231100 03012KT P6SM SCT050 OVC080
     FM231400 05013G20KT P6SM VCSH BKN050 OVC080
     FM231600 06018G28KT 6SM -SN BKN025 OVC050=

USA.gov is the U.S. government's official web portal to all federal, state and local government web resources and services.